Time;durP1;ratioP1;P1;durP2;ratioP2;P2;SDS_P1;SDS_P2;PMS_P1;PMS_P2;Temp;Humidity;BMP_temperature;BMP_pressure;BME280_temperature;BME280_humidity;BME280_pressure;Samples;Min_cycle;Max_cycle;Signal;HPM_P1;HPM_P2
2023/03/25 00:00:12;;;;;;;3.38;0.70;;;23.20;99.90;;;;;;5056472;28;20243;-82
2023/03/25 00:02:43;;;;;;;2.92;0.70;;;23.30;99.90;;;;;;5056069;28;20193;-81
2023/03/25 00:05:17;;;;;;;1.67;0.60;;;23.30;99.90;;;;;;5055679;28;20233;-82
2023/03/25 00:07:50;;;;;;;2.25;0.50;;;23.30;99.90;;;;;;5073578;28;20573;-83
2023/03/25 00:10:21;;;;;;;2.25;0.55;;;23.40;99.90;;;;;;5075920;28;20193;-80
2023/03/25 00:12:54;;;;;;;1.38;0.50;;;23.30;99.90;;;;;;5075850;28;20185;-80
2023/03/25 00:15:25;;;;;;;1.00;0.60;;;23.30;99.90;;;;;;5075708;28;20193;-80
2023/03/25 00:17:56;;;;;;;2.17;0.60;;;23.30;99.90;;;;;;5075990;28;20189;-80
2023/03/25 00:20:31;;;;;;;2.72;0.77;;;23.30;99.90;;;;;;5075525;28;20220;-80
2023/03/25 00:23:03;;;;;;;3.05;0.80;;;23.40;99.90;;;;;;5075772;28;20195;-81
2023/03/25 00:25:35;;;;;;;0.80;0.38;;;23.40;99.90;;;;;;5075423;28;20291;-80
2023/03/25 00:28:07;;;;;;;2.63;0.50;;;23.50;99.90;;;;;;5074652;28;20641;-80
2023/03/25 00:30:39;;;;;;;2.47;0.50;;;23.50;99.90;;;;;;5075710;28;20196;-81
2023/03/25 00:33:13;;;;;;;1.98;0.50;;;23.60;99.90;;;;;;5075301;28;20189;-79
2023/03/25 00:35:48;;;;;;;1.15;0.50;;;23.70;99.90;;;;;;5075405;28;20185;-82
2023/03/25 00:38:19;;;;;;;2.13;0.70;;;23.70;99.90;;;;;;5075097;28;20644;-82
2023/03/25 00:40:51;;;;;;;1.73;0.60;;;23.70;99.90;;;;;;5075309;28;20185;-80
2023/03/25 00:43:22;;;;;;;3.70;0.80;;;23.60;99.90;;;;;;5075254;28;20189;-80
2023/03/25 00:45:58;;;;;;;2.08;0.60;;;23.60;99.90;;;;;;5075154;28;20228;-80
2023/03/25 00:48:29;;;;;;;3.08;0.57;;;23.60;99.90;;;;;;5075303;28;20203;-80
2023/03/25 00:51:07;;;;;;;3.03;0.80;;;23.60;99.90;;;;;;5075455;28;20196;-80
2023/03/25 00:53:38;;;;;;;3.22;0.60;;;23.60;99.90;;;;;;5075175;28;20188;-81
2023/03/25 00:56:11;;;;;;;2.97;0.82;;;23.60;99.90;;;;;;5074902;28;20558;-81
2023/03/25 00:58:42;;;;;;;4.68;0.60;;;23.60;99.90;;;;;;5063806;28;20205;-81
2023/03/25 01:01:16;;;;;;;2.55;0.75;;;23.60;99.90;;;;;;5054270;28;20284;-81
2023/03/25 01:03:56;;;;;;;1.73;0.57;;;23.70;99.90;;;;;;5057363;28;20218;-81
2023/03/25 01:06:31;;;;;;;1.92;0.50;;;23.60;99.90;;;;;;5054586;28;20214;-82
2023/03/25 01:09:04;;;;;;;3.47;0.70;;;23.70;99.90;;;;;;5060933;28;20215;-82
2023/03/25 01:11:37;;;;;;;3.33;0.60;;;23.70;99.90;;;;;;5074377;28;20647;-81
2023/03/25 01:14:10;;;;;;;2.53;0.75;;;23.70;99.90;;;;;;5056803;28;20204;-79
2023/03/25 01:16:41;;;;;;;3.05;0.70;;;23.80;99.90;;;;;;5054023;28;20207;-80
2023/03/25 01:19:13;;;;;;;2.92;0.70;;;23.80;99.90;;;;;;5054461;28;20663;-82
2023/03/25 01:21:46;;;;;;;1.88;0.70;;;23.80;99.90;;;;;;5054130;28;20193;-80
2023/03/25 01:24:17;;;;;;;7.53;1.15;;;24.00;99.90;;;;;;5073836;28;20250;-80
2023/03/25 01:26:48;;;;;;;2.15;0.57;;;24.20;99.90;;;;;;5073885;28;20225;-79
2023/03/25 01:29:21;;;;;;;2.70;0.60;;;24.40;99.90;;;;;;5054519;28;20581;-80
2023/03/25 01:31:52;;;;;;;3.30;0.80;;;24.60;99.90;;;;;;5057818;28;20189;-80
2023/03/25 01:34:23;;;;;;;4.82;0.80;;;24.50;99.90;;;;;;5052602;28;20197;-81
2023/03/25 01:36:57;;;;;;;4.35;0.50;;;24.50;99.90;;;;;;5054022;28;20190;-84
2023/03/25 01:39:28;;;;;;;3.15;0.70;;;24.50;99.90;;;;;;5053484;28;20233;-81
2023/03/25 01:41:59;;;;;;;3.35;0.80;;;24.40;99.90;;;;;;5070083;28;20677;-81
2023/03/25 01:45:05;;;;;;;2.80;0.60;;;24.30;99.90;;;;;;5061613;28;20204;-81
2023/03/25 01:47:36;;;;;;;3.42;0.60;;;24.30;99.90;;;;;;5071028;28;20200;-82
2023/03/25 01:50:13;;;;;;;4.63;1.10;;;24.10;99.90;;;;;;5071194;28;20664;-79
2023/03/25 01:52:50;;;;;;;2.17;0.65;;;24.10;99.90;;;;;;5071475;28;20205;-82
2023/03/25 01:55:23;;;;;;;3.35;0.95;;;24.20;99.90;;;;;;5067769;28;20610;-78
2023/03/25 01:57:58;;;;;;;4.05;0.65;;;24.20;99.90;;;;;;5060995;28;20197;-81
2023/03/25 02:00:29;;;;;;;2.72;0.60;;;24.10;99.90;;;;;;5053442;28;20300;-79
2023/03/25 02:03:03;;;;;;;2.10;0.70;;;24.10;99.90;;;;;;5056476;28;20200;-81
2023/03/25 02:05:40;;;;;;;3.20;0.60;;;24.10;99.90;;;;;;5057693;28;20215;-80
2023/03/25 02:08:14;;;;;;;5.40;0.70;;;24.20;99.90;;;;;;5072829;28;20193;-80
2023/03/25 02:10:48;;;;;;;1.60;0.60;;;24.10;99.90;;;;;;5073580;28;20802;-80
2023/03/25 02:13:20;;;;;;;5.10;0.70;;;24.10;99.90;;;;;;5073841;28;20739;-81
2023/03/25 02:16:12;;;;;;;2.25;0.75;;;24.00;99.90;;;;;;5072536;28;20188;-79
2023/03/25 02:18:51;;;;;;;2.70;0.60;;;24.10;99.90;;;;;;5073446;28;20664;-80
2023/03/25 02:22:10;;;;;;;1.83;0.60;;;24.20;99.90;;;;;;5073421;28;20193;-82
2023/03/25 02:25:20;;;;;;;2.10;0.70;;;24.30;99.90;;;;;;5071768;28;20614;-79
2023/03/25 02:28:01;;;;;;;3.30;0.70;;;24.50;99.90;;;;;;5073473;28;20668;-79
2023/03/25 02:30:54;;;;;;;4.07;0.77;;;24.50;99.90;;;;;;5073050;28;20698;-82
2023/03/25 02:33:49;;;;;;;1.95;0.73;;;24.70;99.90;;;;;;5057514;28;20194;-80
2023/03/25 02:36:57;;;;;;;2.13;0.98;;;24.90;99.90;;;;;;5073372;28;20196;-80
2023/03/25 02:39:34;;;;;;;1.98;0.65;;;25.20;99.90;;;;;;5072414;28;20765;-80
2023/03/25 02:42:15;;;;;;;4.80;0.80;;;25.40;99.90;;;;;;5053230;28;20280;-81
2023/03/25 02:44:55;;;;;;;2.08;0.60;;;25.20;99.90;;;;;;5052997;28;20641;-80
2023/03/25 02:47:29;;;;;;;6.45;0.80;;;25.30;99.90;;;;;;5053096;28;20213;-82
2023/03/25 02:50:06;;;;;;;3.38;0.60;;;25.20;99.90;;;;;;5052273;28;20208;-80
2023/03/25 02:52:40;;;;;;;3.20;0.82;;;25.20;99.90;;;;;;5071937;28;20184;-82
2023/03/25 02:55:18;;;;;;;2.50;0.70;;;25.00;99.90;;;;;;5055599;28;20292;-83
2023/03/25 02:57:51;;;;;;;3.40;0.65;;;24.80;99.90;;;;;;5053554;28;20201;-83
2023/03/25 03:00:26;;;;;;;2.05;0.50;;;24.70;99.90;;;;;;5052791;28;20566;-83
2023/03/25 03:02:59;;;;;;;3.15;0.80;;;24.60;99.90;;;;;;5053095;28;20633;-83
2023/03/25 03:05:32;;;;;;;2.33;0.65;;;24.60;99.90;;;;;;5053143;28;20696;-81
2023/03/25 03:08:18;;;;;;;6.28;0.80;;;24.60;99.90;;;;;;5052698;28;20190;-79
2023/03/25 03:11:00;;;;;;;2.13;0.70;;;24.60;99.90;;;;;;5061190;28;20197;-80
2023/03/25 03:13:41;;;;;;;1.60;0.60;;;24.60;99.90;;;;;;5052903;28;20529;-81
2023/03/25 03:16:20;;;;;;;2.58;0.65;;;24.50;99.90;;;;;;5052832;28;20196;-83
2023/03/25 03:19:01;;;;;;;2.45;0.70;;;24.50;99.90;;;;;;5052903;28;20200;-81
2023/03/25 03:21:39;;;;;;;2.33;0.80;;;24.40;99.90;;;;;;5052856;28;20613;-81
2023/03/25 03:24:17;;;;;;;2.85;0.73;;;24.40;99.90;;;;;;5052837;28;20255;-80
2023/03/25 03:26:56;;;;;;;1.33;0.50;;;24.40;99.90;;;;;;5052706;28;20212;-79
2023/03/25 03:29:32;;;;;;;3.65;0.70;;;24.40;99.90;;;;;;5052607;28;20190;-80
2023/03/25 03:32:08;;;;;;;2.08;0.55;;;24.50;99.90;;;;;;5052473;28;20225;-79
2023/03/25 03:34:45;;;;;;;4.68;0.70;;;24.50;99.90;;;;;;5060010;28;20189;-80
2023/03/25 03:37:19;;;;;;;3.80;0.93;;;24.40;99.90;;;;;;5072513;28;20235;-80
2023/03/25 03:39:53;;;;;;;3.22;0.70;;;24.40;99.90;;;;;;5070098;28;20225;-80
2023/03/25 03:42:32;;;;;;;2.50;0.90;;;24.30;99.90;;;;;;5056487;28;20201;-81
2023/03/25 03:45:08;;;;;;;2.47;0.63;;;24.30;99.90;;;;;;5064019;28;20193;-80
2023/03/25 03:47:43;;;;;;;3.00;0.75;;;24.20;99.90;;;;;;5071077;28;20591;-80
2023/03/25 03:50:19;;;;;;;2.33;0.82;;;24.10;99.90;;;;;;5052468;28;20236;-80
2023/03/25 03:52:56;;;;;;;2.90;0.60;;;24.10;99.90;;;;;;5051877;28;20205;-79
2023/03/25 03:55:31;;;;;;;2.42;0.70;;;24.00;99.90;;;;;;5051932;28;20201;-80
2023/03/25 03:58:08;;;;;;;1.75;0.65;;;24.00;99.90;;;;;;5054833;28;20235;-81
2023/03/25 04:00:44;;;;;;;3.95;0.70;;;23.90;99.90;;;;;;5054140;28;20204;-79
2023/03/25 04:03:23;;;;;;;4.05;0.90;;;23.90;99.90;;;;;;5054356;28;20649;-80
2023/03/25 04:06:05;;;;;;;2.63;0.60;;;24.00;99.90;;;;;;5053784;28;20217;-79
2023/03/25 04:08:41;;;;;;;2.75;0.60;;;24.00;99.90;;;;;;5068121;28;20204;-79
2023/03/25 04:11:17;;;;;;;2.25;0.60;;;24.00;99.90;;;;;;5073348;28;20668;-79
2023/03/25 04:13:56;;;;;;;3.20;0.75;;;24.00;99.90;;;;;;5060368;28;20212;-80
2023/03/25 04:16:27;;;;;;;3.15;0.70;;;24.00;99.90;;;;;;5065206;28;20185;-80
2023/03/25 04:18:58;;;;;;;2.30;0.70;;;23.90;99.90;;;;;;5072708;28;20197;-79
2023/03/25 04:21:29;;;;;;;4.57;0.60;;;23.90;99.90;;;;;;5067978;28;20205;-80
2023/03/25 04:24:00;;;;;;;2.40;0.73;;;23.80;99.90;;;;;;5066818;28;20189;-81
2023/03/25 04:26:32;;;;;;;3.45;0.70;;;23.80;99.90;;;;;;5075350;28;20227;-79
2023/03/25 04:29:06;;;;;;;2.53;0.60;;;23.70;99.90;;;;;;5059155;28;20197;-79
2023/03/25 04:31:45;;;;;;;1.95;0.43;;;23.70;99.90;;;;;;5059502;28;20256;-80
2023/03/25 04:34:16;;;;;;;2.00;0.50;;;23.70;99.90;;;;;;5058261;28;20197;-80
2023/03/25 04:36:48;;;;;;;1.45;0.57;;;23.60;99.90;;;;;;5055436;28;20198;-76
2023/03/25 04:39:21;;;;;;;2.78;0.60;;;23.60;99.90;;;;;;5064484;28;20303;-80
2023/03/25 04:41:52;;;;;;;2.25;0.70;;;23.60;99.90;;;;;;5065940;28;20247;-81
2023/03/25 04:44:27;;;;;;;1.95;0.50;;;23.60;99.90;;;;;;5056201;28;20204;-85
2023/03/25 04:46:58;;;;;;;2.40;0.52;;;23.60;99.90;;;;;;5060902;28;20213;-82
2023/03/25 04:49:29;;;;;;;1.95;0.40;;;23.60;99.90;;;;;;5053727;28;20668;-82
2023/03/25 04:52:03;;;;;;;2.15;0.55;;;23.50;99.90;;;;;;5068838;28;20204;-84
2023/03/25 04:54:34;;;;;;;1.98;0.60;;;23.60;99.90;;;;;;5054351;28;20272;-81
2023/03/25 04:57:07;;;;;;;3.25;0.50;;;23.60;99.90;;;;;;5055653;28;20208;-81
2023/03/25 04:59:40;;;;;;;1.58;0.60;;;23.60;99.90;;;;;;5054983;28;20208;-81
2023/03/25 05:02:13;;;;;;;1.88;0.57;;;23.60;99.90;;;;;;5058857;28;20201;-79
2023/03/25 05:04:46;;;;;;;4.10;0.60;;;23.60;99.90;;;;;;5062536;28;20197;-81
2023/03/25 05:07:17;;;;;;;1.40;0.70;;;23.50;99.90;;;;;;5054752;28;20271;-81
2023/03/25 05:09:48;;;;;;;2.40;0.45;;;23.50;99.90;;;;;;5054543;28;20541;-81
2023/03/25 05:12:19;;;;;;;3.28;0.63;;;23.40;99.90;;;;;;5054742;28;20555;-80
2023/03/25 05:14:52;;;;;;;1.50;0.50;;;23.30;99.90;;;;;;5054901;28;20193;-80
2023/03/25 05:17:23;;;;;;;5.50;0.70;;;23.20;99.90;;;;;;5054619;28;20633;-79
2023/03/25 05:19:55;;;;;;;1.75;0.50;;;23.20;99.90;;;;;;5054617;28;20205;-80
2023/03/25 05:22:26;;;;;;;3.35;0.70;;;23.20;99.90;;;;;;5054584;28;20560;-79
2023/03/25 05:24:57;;;;;;;2.97;0.60;;;23.10;99.90;;;;;;5054327;28;20269;-82
2023/03/25 05:27:29;;;;;;;3.55;0.70;;;23.00;99.90;;;;;;5054369;28;20231;-86
2023/03/25 05:30:02;;;;;;;1.35;0.60;;;23.00;99.90;;;;;;5054589;28;20240;-82
2023/03/25 05:32:34;;;;;;;5.82;1.00;;;22.90;99.90;;;;;;5072668;28;20657;-77
2023/03/25 05:35:06;;;;;;;4.13;0.70;;;22.70;99.90;;;;;;5074373;28;20193;-75
2023/03/25 05:37:37;;;;;;;5.07;0.80;;;22.60;99.90;;;;;;5074286;28;20200;-75
2023/03/25 05:40:10;;;;;;;3.38;0.77;;;22.30;99.90;;;;;;5074052;28;20605;-75
2023/03/25 05:42:47;;;;;;;3.60;0.85;;;22.00;99.90;;;;;;5074218;28;20280;-74
2023/03/25 05:45:20;;;;;;;5.15;1.00;;;21.80;99.90;;;;;;5074050;28;20243;-74
2023/03/25 05:47:52;;;;;;;4.70;0.85;;;21.60;99.90;;;;;;5073797;28;20250;-73
2023/03/25 05:50:24;;;;;;;8.57;1.25;;;21.40;99.90;;;;;;5069700;28;20231;-74
2023/03/25 05:52:56;;;;;;;4.72;1.35;;;21.20;99.90;;;;;;5053600;28;20206;-73
2023/03/25 05:55:27;;;;;;;5.25;1.10;;;21.20;99.90;;;;;;5053908;28;20194;-73
2023/03/25 05:57:58;;;;;;;7.05;1.33;;;21.10;99.90;;;;;;5053829;28;20197;-73
2023/03/25 06:00:32;;;;;;;4.68;1.00;;;21.10;99.90;;;;;;5053821;28;20202;-73
2023/03/25 06:03:03;;;;;;;4.72;1.38;;;21.00;99.90;;;;;;5054037;28;20219;-74
2023/03/25 06:05:35;;;;;;;3.05;0.80;;;20.90;99.90;;;;;;5054007;28;20193;-73
2023/03/25 06:08:07;;;;;;;7.05;1.13;;;20.90;99.90;;;;;;5059791;28;20216;-74
2023/03/25 06:10:38;;;;;;;5.53;1.10;;;20.80;99.90;;;;;;5065738;28;20624;-74
2023/03/25 06:13:09;;;;;;;3.95;1.02;;;20.80;99.90;;;;;;5053718;28;20561;-74
2023/03/25 06:15:43;;;;;;;4.90;1.00;;;20.70;99.90;;;;;;5053649;28;20634;-74
2023/03/25 06:18:14;;;;;;;6.97;1.00;;;20.70;99.90;;;;;;5053582;28;20193;-74
2023/03/25 06:20:46;;;;;;;4.93;0.98;;;20.70;99.90;;;;;;5053599;28;20194;-74
2023/03/25 06:23:17;;;;;;;3.78;0.80;;;20.60;99.90;;;;;;5053407;28;20193;-74
2023/03/25 06:25:48;;;;;;;4.88;0.90;;;20.60;99.90;;;;;;5052908;28;20190;-74
2023/03/25 06:28:20;;;;;;;5.07;1.30;;;20.50;99.90;;;;;;5052542;28;20213;-73
2023/03/25 06:30:53;;;;;;;6.30;1.00;;;20.40;99.90;;;;;;5052432;28;20312;-73
2023/03/25 06:33:24;;;;;;;5.30;1.00;;;20.50;99.90;;;;;;5068557;28;20201;-73
2023/03/25 06:35:55;;;;;;;4.78;0.90;;;20.50;99.90;;;;;;5073066;28;20551;-73
2023/03/25 06:38:28;;;;;;;3.47;1.00;;;20.50;99.90;;;;;;5073037;28;20303;-73
2023/03/25 06:40:59;;;;;;;6.00;1.13;;;20.50;99.90;;;;;;5073186;28;20197;-73
2023/03/25 06:43:31;;;;;;;7.13;1.30;;;20.50;99.90;;;;;;5073201;28;20189;-73
2023/03/25 06:46:04;;;;;;;4.93;1.30;;;20.50;99.90;;;;;;5073081;28;20185;-74
2023/03/25 06:48:35;;;;;;;5.95;1.33;;;20.50;99.90;;;;;;5059399;28;20231;-74
2023/03/25 06:51:06;;;;;;;6.13;1.05;;;20.50;99.90;;;;;;5061594;28;20209;-73
2023/03/25 06:53:37;;;;;;;3.20;0.90;;;20.50;99.90;;;;;;5073253;28;20189;-73
2023/03/25 06:56:09;;;;;;;3.85;1.00;;;20.50;99.90;;;;;;5073013;28;20656;-73
2023/03/25 06:58:40;;;;;;;2.25;0.90;;;20.50;99.90;;;;;;5073100;28;20192;-73
2023/03/25 07:01:13;;;;;;;6.05;1.17;;;20.50;99.90;;;;;;5072933;28;20271;-73
2023/03/25 07:03:44;;;;;;;4.57;1.20;;;20.50;99.90;;;;;;5072975;28;20687;-73
2023/03/25 07:06:20;;;;;;;5.53;1.20;;;20.50;99.90;;;;;;5072718;28;20189;-74
2023/03/25 07:08:51;;;;;;;3.72;0.95;;;20.40;99.90;;;;;;5059362;28;20278;-73
2023/03/25 07:11:27;;;;;;;4.35;1.13;;;20.40;99.90;;;;;;5053002;28;20198;-73
2023/03/25 07:13:58;;;;;;;7.18;1.15;;;20.30;99.90;;;;;;5053018;28;20193;-73
2023/03/25 07:16:31;;;;;;;3.47;0.98;;;20.20;99.90;;;;;;5052448;28;20194;-73
2023/03/25 07:19:03;;;;;;;4.30;1.00;;;20.20;99.90;;;;;;5053758;28;20208;-73
2023/03/25 07:21:34;;;;;;;4.32;0.82;;;20.20;99.90;;;;;;5052721;28;20189;-74
2023/03/25 07:24:05;;;;;;;8.18;1.17;;;20.20;99.90;;;;;;5053243;28;20197;-73
2023/03/25 07:26:36;;;;;;;3.70;0.82;;;20.10;99.90;;;;;;5052739;28;20193;-74
2023/03/25 07:29:07;;;;;;;4.57;0.93;;;20.00;99.90;;;;;;5052699;28;20233;-73
2023/03/25 07:31:40;;;;;;;4.25;0.90;;;20.00;99.90;;;;;;5070518;28;20608;-73
2023/03/25 07:34:11;;;;;;;7.53;1.13;;;20.00;99.90;;;;;;5072563;28;20194;-73
2023/03/25 07:36:42;;;;;;;4.75;1.30;;;20.00;99.90;;;;;;5074592;28;20204;-74
2023/03/25 07:39:13;;;;;;;6.95;1.55;;;20.00;99.90;;;;;;5076215;28;20247;-76
2023/03/25 07:41:46;;;;;;;5.10;1.42;;;20.00;99.90;;;;;;5076440;28;20189;-73
2023/03/25 07:44:19;;;;;;;10.15;1.73;;;20.00;99.90;;;;;;5076390;28;20197;-73
2023/03/25 07:46:52;;;;;;;5.20;1.25;;;20.10;99.90;;;;;;5076189;28;20246;-73
2023/03/25 07:49:23;;;;;;;7.03;1.23;;;20.00;99.90;;;;;;5070562;28;20205;-73
2023/03/25 07:51:54;;;;;;;7.50;1.40;;;20.00;99.90;;;;;;5076163;28;20648;-73
2023/03/25 07:54:25;;;;;;;9.65;1.90;;;20.00;99.90;;;;;;5076164;28;20629;-74
2023/03/25 07:56:56;;;;;;;7.78;1.40;;;20.00;99.90;;;;;;5076016;28;20196;-73
2023/03/25 07:59:27;;;;;;;5.18;2.00;;;19.90;99.90;;;;;;5076264;28;20189;-74
2023/03/25 08:02:00;;;;;;;5.03;1.60;;;20.00;99.90;;;;;;5070362;28;20197;-74
2023/03/25 08:04:32;;;;;;;3.50;1.00;;;19.90;99.90;;;;;;5063088;28;20223;-74
2023/03/25 08:07:03;;;;;;;6.30;1.30;;;19.90;99.90;;;;;;5075946;28;20235;-74
2023/03/25 08:09:34;;;;;;;3.78;0.82;;;19.90;99.90;;;;;;5070608;28;20541;-74
2023/03/25 08:12:05;;;;;;;3.53;1.00;;;19.90;99.90;;;;;;5072539;28;20560;-74
2023/03/25 08:14:36;;;;;;;7.25;1.05;;;19.90;99.90;;;;;;5075915;28;20628;-74
2023/03/25 08:17:10;;;;;;;6.45;1.17;;;19.90;99.90;;;;;;5075971;28;20556;-73
2023/03/25 08:19:41;;;;;;;3.90;1.10;;;19.90;99.90;;;;;;5058246;28;20194;-74
2023/03/25 08:22:12;;;;;;;7.88;1.20;;;19.90;99.90;;;;;;5075616;28;20204;-74
2023/03/25 08:24:43;;;;;;;6.10;1.48;;;20.00;99.90;;;;;;5075554;28;20192;-73
2023/03/25 08:27:14;;;;;;;8.35;1.60;;;20.00;99.90;;;;;;5075802;28;20672;-74
2023/03/25 08:29:46;;;;;;;3.75;1.20;;;20.00;99.90;;;;;;5070124;28;20684;-74
2023/03/25 08:32:19;;;;;;;7.45;1.15;;;20.00;99.90;;;;;;5075217;28;20208;-74
2023/03/25 08:34:50;;;;;;;4.80;1.23;;;20.00;99.90;;;;;;5055310;28;20204;-74
2023/03/25 08:37:21;;;;;;;6.38;1.30;;;20.00;99.90;;;;;;5055320;28;20669;-74
2023/03/25 08:39:54;;;;;;;9.38;1.30;;;20.00;99.90;;;;;;5055835;28;20233;-74
2023/03/25 08:42:25;;;;;;;8.02;1.27;;;20.00;99.90;;;;;;5055394;28;20277;-75
2023/03/25 08:44:56;;;;;;;5.57;1.10;;;20.00;99.90;;;;;;5055448;28;20630;-75
2023/03/25 08:47:29;;;;;;;4.32;1.10;;;20.00;99.90;;;;;;5073408;28;20225;-75
2023/03/25 08:50:01;;;;;;;4.03;1.17;;;20.10;99.90;;;;;;5075211;28;20192;-74
2023/03/25 08:52:32;;;;;;;4.85;1.10;;;20.10;99.90;;;;;;5075172;28;20192;-75
2023/03/25 08:55:03;;;;;;;5.82;1.30;;;20.10;99.90;;;;;;5073367;28;20197;-75
2023/03/25 08:57:34;;;;;;;4.20;1.25;;;20.10;99.90;;;;;;5059711;28;20193;-78
2023/03/25 09:00:11;;;;;;;4.75;1.05;;;20.10;99.90;;;;;;5056122;28;20205;-75
2023/03/25 09:02:44;;;;;;;5.38;1.10;;;20.10;99.90;;;;;;5063123;28;20194;-76
2023/03/25 09:05:17;;;;;;;3.22;1.05;;;20.10;99.90;;;;;;5064597;28;20227;-75
2023/03/25 09:07:49;;;;;;;5.45;1.00;;;20.10;99.90;;;;;;5071866;28;20572;-77
2023/03/25 09:10:20;;;;;;;6.47;1.02;;;20.20;99.90;;;;;;5056324;28;20576;-76
2023/03/25 09:12:51;;;;;;;6.10;0.93;;;20.20;99.90;;;;;;5066827;28;20212;-76
2023/03/25 09:15:22;;;;;;;4.75;1.05;;;20.20;99.90;;;;;;5062145;28;20197;-76
2023/03/25 09:17:55;;;;;;;6.20;1.23;;;20.20;99.90;;;;;;5067578;28;20212;-76
2023/03/25 09:20:26;;;;;;;6.80;1.08;;;20.20;99.90;;;;;;5062046;28;20197;-76
2023/03/25 09:22:57;;;;;;;8.77;0.90;;;20.20;99.90;;;;;;5065302;28;20197;-77
2023/03/25 09:25:28;;;;;;;7.60;1.35;;;20.20;99.90;;;;;;5064501;28;20201;-76
2023/03/25 09:27:59;;;;;;;5.25;0.82;;;20.30;99.90;;;;;;5065197;28;20213;-76
2023/03/25 09:30:31;;;;;;;7.50;0.95;;;20.30;99.90;;;;;;5061827;28;20221;-76
2023/03/25 09:33:04;;;;;;;6.88;1.00;;;20.30;99.90;;;;;;5068102;28;20661;-77
2023/03/25 09:35:35;;;;;;;4.53;1.00;;;20.30;99.90;;;;;;5062065;28;20204;-77
2023/03/25 09:38:06;;;;;;;9.15;1.00;;;20.30;99.90;;;;;;5065552;28;20204;-77
2023/03/25 09:40:38;;;;;;;4.10;0.80;;;20.30;99.90;;;;;;5072656;28;20246;-77
2023/03/25 09:43:30;;;;;;;3.47;1.05;;;20.40;99.90;;;;;;5056791;28;20653;-78
2023/03/25 09:46:02;;;;;;;4.72;0.98;;;20.40;99.90;;;;;;5056887;28;20223;-78
2023/03/25 09:48:39;;;;;;;6.53;1.30;;;20.40;99.90;;;;;;5056260;28;20224;-78
2023/03/25 09:51:15;;;;;;;4.25;0.95;;;20.40;99.90;;;;;;5070664;28;20192;-77
2023/03/25 09:53:50;;;;;;;4.60;0.88;;;20.40;99.90;;;;;;5073515;28;20196;-79
2023/03/25 09:56:24;;;;;;;3.50;0.73;;;20.30;99.90;;;;;;5064474;28;20204;-77
2023/03/25 09:58:58;;;;;;;4.97;0.95;;;20.40;99.90;;;;;;5064893;28;20529;-77
2023/03/25 10:01:39;;;;;;;3.30;0.77;;;20.40;99.90;;;;;;5071366;28;20204;-78
2023/03/25 10:04:45;;;;;;;4.20;1.00;;;20.30;99.90;;;;;;5064818;28;20572;-79
2023/03/25 10:07:33;;;;;;;4.40;0.70;;;20.30;99.90;;;;;;5066448;28;20204;-79
2023/03/25 10:10:13;;;;;;;3.03;0.73;;;20.40;99.90;;;;;;5061759;28;20196;-78
2023/03/25 10:12:52;;;;;;;3.63;0.80;;;20.40;99.90;;;;;;5068025;28;20250;-79
2023/03/25 10:15:35;;;;;;;3.72;0.80;;;20.50;99.90;;;;;;5056415;28;20204;-79
2023/03/25 10:18:27;;;;;;;6.07;0.85;;;20.50;99.90;;;;;;5064834;28;20209;-80
2023/03/25 10:21:09;;;;;;;3.00;0.93;;;20.50;99.90;;;;;;5060109;28;20203;-79
2023/03/25 10:23:43;;;;;;;4.53;0.80;;;20.40;99.90;;;;;;5064078;28;20200;-79
2023/03/25 10:26:19;;;;;;;5.60;1.10;;;20.40;99.90;;;;;;5071941;28;20197;-80
2023/03/25 10:28:53;;;;;;;4.97;0.88;;;20.40;99.90;;;;;;5063652;28;20232;-79
2023/03/25 10:31:29;;;;;;;4.07;0.80;;;20.40;99.90;;;;;;5059606;28;20204;-80
2023/03/25 10:34:03;;;;;;;7.82;1.67;;;20.40;99.90;;;;;;5054591;28;20221;-79
2023/03/25 10:36:39;;;;;;;3.53;0.80;;;20.40;99.90;;;;;;5069935;28;20671;-79
2023/03/25 10:39:20;;;;;;;5.72;0.95;;;20.40;99.90;;;;;;5063273;28;20233;-79
2023/03/25 10:41:59;;;;;;;3.78;0.70;;;20.40;99.90;;;;;;5067895;28;20192;-79
2023/03/25 10:44:32;;;;;;;5.20;0.80;;;20.40;99.90;;;;;;5054889;28;20193;-80
2023/03/25 10:47:09;;;;;;;2.72;0.55;;;20.40;99.90;;;;;;5059916;28;20653;-79
2023/03/25 10:49:42;;;;;;;2.38;0.60;;;20.40;99.90;;;;;;5069555;28;20216;-80
2023/03/25 10:52:16;;;;;;;4.10;0.70;;;20.40;99.90;;;;;;5057651;28;20656;-78
2023/03/25 10:54:52;;;;;;;1.38;0.40;;;20.40;99.90;;;;;;5064237;28;20197;-79
2023/03/25 10:57:28;;;;;;;3.95;0.68;;;20.40;99.90;;;;;;5071058;28;20199;-79
2023/03/25 11:00:11;;;;;;;3.70;1.35;;;20.40;99.90;;;;;;5068205;28;20536;-79
2023/03/25 11:02:42;;;;;;;3.25;1.38;;;20.40;99.90;;;;;;5060633;28;20242;-78
2023/03/25 11:05:17;;;;;;;7.38;0.95;;;20.50;99.90;;;;;;5060459;28;20193;-78
2023/03/25 11:07:52;;;;;;;4.80;0.80;;;20.40;99.90;;;;;;5071134;28;20241;-79
2023/03/25 11:10:27;;;;;;;5.22;1.00;;;20.50;99.90;;;;;;5062045;28;20562;-78
2023/03/25 11:13:02;;;;;;;3.45;0.57;;;20.50;99.90;;;;;;5066022;28;20283;-79
2023/03/25 11:15:35;;;;;;;3.90;0.60;;;20.50;99.90;;;;;;5075758;28;20739;-78
2023/03/25 11:18:12;;;;;;;3.97;0.60;;;20.50;99.90;;;;;;5067447;28;20200;-82
2023/03/25 11:20:50;;;;;;;2.70;0.52;;;20.50;99.90;;;;;;5061426;28;20208;-78
2023/03/25 11:23:29;;;;;;;1.15;0.40;;;20.50;99.90;;;;;;5070929;28;20203;-78
2023/03/25 11:26:06;;;;;;;2.17;0.50;;;20.50;99.90;;;;;;5060484;28;20197;-78
2023/03/25 11:28:41;;;;;;;2.20;0.60;;;20.50;99.90;;;;;;5060310;28;20229;-79
2023/03/25 11:31:18;;;;;;;5.90;0.85;;;20.50;99.90;;;;;;5063895;28;20204;-79
2023/03/25 11:34:05;;;;;;;4.30;0.63;;;20.50;99.90;;;;;;5065225;28;20208;-79
2023/03/25 11:36:39;;;;;;;4.05;0.50;;;20.50;99.90;;;;;;5070022;28;20197;-79
2023/03/25 11:39:20;;;;;;;2.53;0.68;;;20.40;99.90;;;;;;5072309;28;20228;-78
2023/03/25 11:41:52;;;;;;;6.72;1.05;;;20.50;99.90;;;;;;5073529;28;20197;-79
2023/03/25 11:44:27;;;;;;;5.95;1.10;;;20.50;99.90;;;;;;5068188;28;20240;-79
2023/03/25 11:47:02;;;;;;;1.65;0.55;;;20.40;99.90;;;;;;5063866;28;20192;-79
2023/03/25 11:49:37;;;;;;;3.85;0.50;;;20.50;99.90;;;;;;5069423;28;20220;-79
2023/03/25 11:52:11;;;;;;;1.95;0.47;;;20.40;99.90;;;;;;5056059;28;20205;-79
2023/03/25 11:54:45;;;;;;;3.83;0.55;;;20.40;99.90;;;;;;5065304;28;20675;-79
2023/03/25 11:57:19;;;;;;;1.90;0.43;;;20.40;99.90;;;;;;5060419;28;20193;-79
2023/03/25 11:59:51;;;;;;;4.97;0.80;;;20.30;99.90;;;;;;5060349;28;20264;-78
2023/03/25 12:02:26;;;;;;;4.47;0.70;;;20.30;99.90;;;;;;5065431;28;20205;-80
2023/03/25 12:05:02;;;;;;;3.22;0.70;;;20.30;99.90;;;;;;5062764;28;20196;-78
2023/03/25 12:07:42;;;;;;;1.90;0.55;;;20.30;99.90;;;;;;5059022;28;20667;-78
2023/03/25 12:10:20;;;;;;;5.95;0.70;;;20.30;99.90;;;;;;5069752;28;20216;-78
2023/03/25 12:13:02;;;;;;;3.00;0.50;;;20.30;99.90;;;;;;5075575;28;20185;-79
2023/03/25 12:15:41;;;;;;;4.50;0.63;;;20.30;99.90;;;;;;5075814;28;20193;-79
2023/03/25 12:18:28;;;;;;;2.25;0.80;;;20.30;99.90;;;;;;5071104;28;20201;-80
2023/03/25 12:21:07;;;;;;;2.15;0.50;;;20.30;99.90;;;;;;5070209;28;20197;-80
2023/03/25 12:23:49;;;;;;;2.53;0.57;;;20.40;99.90;;;;;;5059208;28;20671;-79
2023/03/25 12:26:28;;;;;;;3.95;0.60;;;20.40;99.90;;;;;;5055607;28;20190;-79
2023/03/25 12:29:21;;;;;;;2.35;0.60;;;20.40;99.90;;;;;;5055432;28;20267;-79
2023/03/25 12:32:04;;;;;;;3.67;0.80;;;20.30;99.90;;;;;;5062208;28;20201;-79
2023/03/25 12:34:48;;;;;;;2.80;0.60;;;20.30;99.90;;;;;;5058791;28;20193;-79
2023/03/25 12:37:30;;;;;;;5.00;0.57;;;20.30;99.90;;;;;;5067725;28;20559;-78
2023/03/25 12:40:22;;;;;;;3.35;0.70;;;20.30;99.90;;;;;;5058971;28;20239;-79
2023/03/25 12:43:04;;;;;;;1.40;0.90;;;20.30;99.90;;;;;;5054331;28;20228;-79
2023/03/25 12:45:54;;;;;;;2.30;0.57;;;20.30;99.90;;;;;;5065886;28;20192;-79
2023/03/25 12:48:37;;;;;;;1.90;0.55;;;20.30;99.90;;;;;;5065918;28;20212;-78
2023/03/25 12:51:20;;;;;;;2.72;0.57;;;20.20;99.90;;;;;;5075245;28;20193;-79
2023/03/25 12:54:02;;;;;;;2.00;0.55;;;20.20;99.90;;;;;;5065924;28;20197;-78
2023/03/25 12:56:48;;;;;;;1.88;0.60;;;20.20;99.90;;;;;;5065536;28;20232;-79
2023/03/25 12:59:49;;;;;;;4.53;0.80;;;20.20;99.90;;;;;;5064113;28;20692;-78
2023/03/25 13:02:34;;;;;;;4.10;0.77;;;20.20;99.90;;;;;;5063113;28;20247;-79
2023/03/25 13:05:19;;;;;;;3.13;0.63;;;20.20;99.90;;;;;;5067683;28;20201;-79
2023/03/25 13:07:54;;;;;;;3.10;0.55;;;20.20;99.90;;;;;;5059093;28;20193;-79
2023/03/25 13:10:27;;;;;;;1.88;0.60;;;20.20;99.90;;;;;;5057062;28;20244;-78
2023/03/25 13:13:00;;;;;;;1.92;0.40;;;20.20;99.90;;;;;;5057701;28;20205;-79
2023/03/25 13:15:38;;;;;;;1.88;0.50;;;20.20;99.90;;;;;;5054710;28;20185;-79
2023/03/25 13:18:12;;;;;;;1.67;0.47;;;20.20;99.90;;;;;;5054696;28;20564;-79
2023/03/25 13:20:45;;;;;;;1.77;0.50;;;20.20;99.90;;;;;;5054713;28;20189;-79
2023/03/25 13:23:21;;;;;;;2.63;0.50;;;20.30;99.90;;;;;;5054713;28;20190;-79
2023/03/25 13:25:57;;;;;;;2.65;0.43;;;20.30;99.90;;;;;;5057589;28;20205;-79
2023/03/25 13:28:37;;;;;;;1.58;0.50;;;20.40;99.90;;;;;;5074326;28;20220;-78